createdAt,value
2023-01-10T00:00:31.683Z,6.77
2023-01-10T00:02:58.262Z,6.96
2023-01-10T00:05:24.765Z,7.14
2023-01-10T00:07:51.224Z,7.12
2023-01-10T00:10:17.891Z,7.45
2023-01-10T00:12:44.827Z,7.61
2023-01-10T00:15:11.291Z,7.27
2023-01-10T00:17:37.809Z,7.28
2023-01-10T00:20:04.579Z,7.14
2023-01-10T00:22:31.107Z,7.58
2023-01-10T00:24:57.563Z,7.53
2023-01-10T00:27:24.036Z,6.62
2023-01-10T00:29:51.093Z,6.53
2023-01-10T00:32:18.504Z,6.65
2023-01-10T00:34:45.226Z,6.76
2023-01-10T00:37:11.674Z,6.92
2023-01-10T00:39:38.116Z,6.84
2023-01-10T00:42:04.999Z,6.47
2023-01-10T00:44:31.585Z,6.68
2023-01-10T00:46:58.052Z,6.41
2023-01-10T00:49:24.566Z,6.55
2023-01-10T00:51:51.028Z,6.41
2023-01-10T00:54:17.569Z,6.37
2023-01-10T00:56:44.091Z,6.47
2023-01-10T00:59:10.536Z,6.45
2023-01-10T01:01:37.111Z,6.78
2023-01-10T01:04:03.736Z,7.17
2023-01-10T01:06:30.278Z,7.46
2023-01-10T01:08:56.748Z,7.45
2023-01-10T01:11:23.349Z,7.48
2023-01-10T01:13:49.851Z,7.26
2023-01-10T01:16:17.405Z,6.85
2023-01-10T01:18:44.072Z,6.52
2023-01-10T01:21:10.504Z,6.82
2023-01-10T01:23:37.071Z,6.70
2023-01-10T01:26:03.685Z,7.07
2023-01-10T01:28:30.129Z,7.13
2023-01-10T01:30:56.590Z,7.30
2023-01-10T01:33:23.224Z,7.58
2023-01-10T01:35:49.928Z,7.52
2023-01-10T01:38:17.568Z,7.78
2023-01-10T01:40:44.226Z,7.69
2023-01-10T01:43:27.608Z,7.84
2023-01-10T01:45:55.525Z,7.64
2023-01-10T01:48:43.758Z,7.13
2023-01-10T01:51:18.361Z,6.57
2023-01-10T01:54:00.188Z,6.89
2023-01-10T01:56:46.054Z,7.00
2023-01-10T01:59:30.594Z,6.67
2023-01-10T02:02:05.182Z,6.75
2023-01-10T02:04:41.647Z,6.87
2023-01-10T02:07:10.209Z,6.18
2023-01-10T02:09:48.658Z,6.37
2023-01-10T02:12:15.681Z,6.50
2023-01-10T02:14:45.018Z,6.51
2023-01-10T02:17:11.998Z,6.04
2023-01-10T02:19:56.608Z,6.32
2023-01-10T02:22:54.038Z,6.06
2023-01-10T02:26:04.023Z,6.14
2023-01-10T02:28:44.136Z,6.18
2023-01-10T02:31:19.512Z,6.82
2023-01-10T02:33:57.237Z,6.23
2023-01-10T02:36:35.774Z,6.49
2023-01-10T02:39:10.987Z,6.48
2023-01-10T02:41:51.540Z,6.26
2023-01-10T02:44:25.540Z,6.56
2023-01-10T02:46:52.078Z,6.59
2023-01-10T02:49:18.734Z,6.01
2023-01-10T02:51:45.234Z,5.80
2023-01-10T02:54:22.226Z,5.89
2023-01-10T02:56:51.454Z,5.74
2023-01-10T02:59:30.029Z,6.00
2023-01-10T03:02:07.978Z,6.27
2023-01-10T03:04:52.637Z,5.77
2023-01-10T03:07:28.097Z,5.93
2023-01-10T03:10:19.003Z,6.11
2023-01-10T03:13:00.269Z,6.64
2023-01-10T03:15:33.551Z,6.54
2023-01-10T03:18:05.197Z,6.43
2023-01-10T03:20:37.192Z,6.44
2023-01-10T03:23:06.304Z,6.30
2023-01-10T03:25:37.857Z,6.60
2023-01-10T03:28:16.174Z,6.54
2023-01-10T03:30:54.633Z,6.73
2023-01-10T03:33:27.920Z,6.93
2023-01-10T03:36:08.459Z,6.98
2023-01-10T03:38:52.845Z,6.59
2023-01-10T03:41:47.396Z,6.97
2023-01-10T03:44:27.086Z,7.21
2023-01-10T03:46:58.145Z,7.38
2023-01-10T03:49:27.828Z,7.44
2023-01-10T03:51:57.973Z,7.60
2023-01-10T03:54:24.994Z,7.71
2023-01-10T03:56:52.012Z,7.83
2023-01-10T03:59:23.570Z,7.82
2023-01-10T04:01:50.677Z,7.71
2023-01-10T04:04:17.305Z,7.59
2023-01-10T04:06:44.421Z,7.82
2023-01-10T04:09:11.250Z,7.85
2023-01-10T04:11:37.770Z,7.81
2023-01-10T04:14:04.366Z,7.79
2023-01-10T04:16:31.464Z,7.73
2023-01-10T04:18:57.936Z,7.64
2023-01-10T04:21:24.390Z,7.82
2023-01-10T04:23:50.846Z,7.71
2023-01-10T04:26:17.321Z,7.88
2023-01-10T04:28:43.773Z,7.29
2023-01-10T04:31:10.404Z,7.27
2023-01-10T04:33:36.869Z,7.44
2023-01-10T04:36:03.415Z,7.50
2023-01-10T04:38:29.971Z,7.50
2023-01-10T04:40:57.173Z,7.30
2023-01-10T04:43:26.629Z,7.51
2023-01-10T04:45:53.231Z,7.55
2023-01-10T04:48:19.913Z,7.57
2023-01-10T04:50:53.923Z,7.67
2023-01-10T04:53:20.938Z,7.67
2023-01-10T04:55:47.956Z,7.69
2023-01-10T04:58:14.689Z,7.70
2023-01-10T05:00:41.364Z,7.73
2023-01-10T05:03:07.939Z,7.82
2023-01-10T05:05:34.528Z,7.79
2023-01-10T05:08:01.038Z,7.81
2023-01-10T05:10:27.566Z,7.86
2023-01-10T05:12:54.040Z,7.91
2023-01-10T05:15:20.480Z,7.92
2023-01-10T05:17:46.924Z,7.74
2023-01-10T05:20:13.394Z,7.84
2023-01-10T05:22:40.673Z,7.83
2023-01-10T05:25:07.385Z,7.90
2023-01-10T05:27:33.845Z,7.89
2023-01-10T05:30:00.327Z,7.84
2023-01-10T05:32:29.823Z,7.82
2023-01-10T05:34:56.762Z,7.54
2023-01-10T05:37:23.268Z,7.47
2023-01-10T05:39:49.823Z,7.71
2023-01-10T05:42:16.321Z,7.69
2023-01-10T05:44:42.767Z,7.79
2023-01-10T05:47:09.217Z,7.85
2023-01-10T05:49:35.662Z,7.89
2023-01-10T05:52:02.134Z,7.93
2023-01-10T05:54:28.643Z,7.94
2023-01-10T05:56:55.357Z,7.95
2023-01-10T05:59:28.122Z,7.97
2023-01-10T06:01:55.028Z,7.96
2023-01-10T06:04:21.505Z,7.96
2023-01-10T06:06:47.990Z,7.96
2023-01-10T06:09:14.495Z,7.93
2023-01-10T06:11:40.977Z,7.67
2023-01-10T06:14:07.427Z,7.73
2023-01-10T06:16:33.943Z,7.44
2023-01-10T06:19:00.467Z,7.58
2023-01-10T06:21:27.064Z,7.52
2023-01-10T06:23:53.547Z,7.43
2023-01-10T06:26:19.996Z,7.22
2023-01-10T06:28:46.441Z,7.12
2023-01-10T06:31:13.040Z,7.37
2023-01-10T06:33:39.548Z,7.53
2023-01-10T06:36:06.504Z,7.73
2023-01-10T06:38:32.971Z,7.61
2023-01-10T06:40:59.437Z,7.60
2023-01-10T06:43:26.100Z,7.43
2023-01-10T06:45:52.614Z,7.39
2023-01-10T06:48:19.089Z,7.48
2023-01-10T06:50:45.540Z,7.21
2023-01-10T06:53:12.022Z,7.02
2023-01-10T06:55:38.460Z,6.77
2023-01-10T06:58:04.996Z,6.99
2023-01-10T07:00:31.903Z,7.13
2023-01-10T07:02:59.361Z,6.81
2023-01-10T07:05:25.844Z,6.93
2023-01-10T07:07:52.365Z,6.80
2023-01-10T07:10:18.912Z,6.69
2023-01-10T07:12:45.405Z,7.05
2023-01-10T07:15:11.859Z,7.45
2023-01-10T07:17:38.341Z,7.33
2023-01-10T07:20:05.201Z,7.64
2023-01-10T07:22:31.650Z,7.57
2023-01-10T07:24:58.105Z,7.54
2023-01-10T07:27:24.571Z,7.50
2023-01-10T07:29:51.039Z,7.64
2023-01-10T07:32:17.592Z,7.45
2023-01-10T07:34:44.057Z,7.65
2023-01-10T07:37:10.504Z,7.69
2023-01-10T07:39:36.974Z,7.75
2023-01-10T07:42:03.539Z,7.36
2023-01-10T07:44:30.049Z,7.65
2023-01-10T07:46:56.594Z,7.41
2023-01-10T07:49:23.080Z,7.07
2023-01-10T07:51:49.540Z,7.15
2023-01-10T07:54:16.024Z,7.09
2023-01-10T07:56:42.516Z,7.23
2023-01-10T07:59:09.140Z,7.13
2023-01-10T08:01:35.632Z,7.51
2023-01-10T08:04:02.063Z,6.98
2023-01-10T08:06:28.543Z,6.86
2023-01-10T08:08:54.991Z,6.17
2023-01-10T08:11:21.454Z,5.60
2023-01-10T08:13:48.074Z,5.77
2023-01-10T08:16:14.954Z,6.31
2023-01-10T08:18:41.469Z,6.31
2023-01-10T08:21:07.980Z,5.92
2023-01-10T08:23:34.609Z,6.06
2023-01-10T08:26:01.619Z,6.25
2023-01-10T08:28:29.032Z,6.78
2023-01-10T08:30:55.604Z,6.93
2023-01-10T08:33:23.790Z,7.23
2023-01-10T08:35:51.143Z,7.61
2023-01-10T08:38:17.610Z,7.44
2023-01-10T08:40:44.083Z,7.93
2023-01-10T08:43:12.529Z,7.84
2023-01-10T08:45:39.755Z,8.17
2023-01-10T08:48:07.210Z,8.44
2023-01-10T08:50:33.692Z,8.51
2023-01-10T08:53:01.173Z,8.35
2023-01-10T08:55:28.995Z,8.62
2023-01-10T08:57:55.456Z,8.69
2023-01-10T09:00:22.532Z,8.80
2023-01-10T09:02:49.071Z,8.64
2023-01-10T09:05:27.033Z,8.77
2023-01-10T09:07:59.733Z,8.67
2023-01-10T09:10:26.846Z,8.86
2023-01-10T09:12:53.356Z,8.84
2023-01-10T09:15:19.980Z,8.79
2023-01-10T09:17:46.439Z,7.98
2023-01-10T09:20:12.908Z,8.04
2023-01-10T09:22:39.410Z,7.50
2023-01-10T09:25:09.081Z,7.37
2023-01-10T09:27:35.563Z,7.61
2023-01-10T09:30:02.050Z,7.61
2023-01-10T09:32:28.655Z,7.30
2023-01-10T09:34:55.125Z,7.03
2023-01-10T09:37:21.571Z,7.06
2023-01-10T09:39:48.040Z,6.84
2023-01-10T09:42:36.386Z,6.83
2023-01-10T09:45:37.924Z,6.58
2023-01-10T09:48:06.925Z,7.08
2023-01-10T09:51:08.457Z,7.09
2023-01-10T09:53:41.479Z,6.97
2023-01-10T09:56:09.307Z,7.00
2023-01-10T09:58:38.222Z,7.29
2023-01-10T10:01:10.283Z,6.94
2023-01-10T10:03:41.338Z,6.80
2023-01-10T10:06:12.917Z,6.85
2023-01-10T10:08:43.001Z,6.78
2023-01-10T10:11:28.368Z,6.91
2023-01-10T10:14:15.215Z,6.79
2023-01-10T10:16:50.712Z,6.76
2023-01-10T10:19:45.062Z,7.12
2023-01-10T10:22:34.401Z,7.42
2023-01-10T10:25:09.916Z,6.94
2023-01-10T10:28:08.280Z,6.91
2023-01-10T10:30:38.430Z,7.18
2023-01-10T10:33:20.442Z,6.92
2023-01-10T10:36:03.427Z,6.79
2023-01-10T10:38:38.993Z,6.90
2023-01-10T10:41:22.166Z,6.99
2023-01-10T10:43:49.169Z,7.13
2023-01-10T10:46:17.333Z,7.01
2023-01-10T10:48:50.974Z,6.81
2023-01-10T10:51:33.984Z,7.09
2023-01-10T10:54:00.626Z,7.01
2023-01-10T10:56:27.505Z,7.05
2023-01-10T10:58:59.605Z,7.20
2023-01-10T11:01:27.083Z,7.15
2023-01-10T11:04:05.991Z,7.19
2023-01-10T11:06:34.575Z,7.46
2023-01-10T11:09:04.289Z,7.73
2023-01-10T11:11:36.096Z,7.56
2023-01-10T11:14:06.601Z,7.67
2023-01-10T11:16:38.674Z,7.84
2023-01-10T11:19:17.483Z,8.01
2023-01-10T11:21:55.501Z,8.10
2023-01-10T11:24:35.837Z,7.94
2023-01-10T11:27:15.242Z,7.88
2023-01-10T11:29:51.421Z,8.47
2023-01-10T11:32:22.568Z,8.24
2023-01-10T11:34:56.656Z,7.97
2023-01-10T11:37:26.317Z,7.91
2023-01-10T11:40:17.284Z,8.26
2023-01-10T11:42:44.645Z,8.66
2023-01-10T11:45:17.103Z,8.39
2023-01-10T11:48:07.727Z,8.81
2023-01-10T11:50:50.953Z,8.44
2023-01-10T11:53:39.026Z,8.83
2023-01-10T11:56:07.295Z,8.51
2023-01-10T11:58:36.580Z,8.80
2023-01-10T12:01:03.142Z,8.99
2023-01-10T12:03:31.743Z,9.11
2023-01-10T12:06:17.975Z,9.37
2023-01-10T12:08:44.966Z,9.52
2023-01-10T12:11:17.545Z,9.52
2023-01-10T12:13:52.971Z,9.68
2023-01-10T12:16:23.812Z,9.51
2023-01-10T12:18:53.028Z,9.74
2023-01-10T12:21:26.506Z,9.54
2023-01-10T12:23:57.293Z,9.26
2023-01-10T12:26:29.490Z,9.28
2023-01-10T12:28:59.633Z,9.44
2023-01-10T12:31:30.078Z,9.29
2023-01-10T12:34:07.419Z,9.51
2023-01-10T12:36:48.866Z,9.40
2023-01-10T12:39:32.915Z,9.65
2023-01-10T12:42:09.525Z,9.52
2023-01-10T12:44:49.595Z,10.02
2023-01-10T12:47:25.043Z,9.92
2023-01-10T12:50:11.221Z,9.91
2023-01-10T12:53:02.730Z,10.51
2023-01-10T12:55:38.463Z,10.53
2023-01-10T12:58:05.599Z,10.59
2023-01-10T13:00:48.754Z,10.64
2023-01-10T13:03:20.976Z,10.66
2023-01-10T13:05:49.261Z,11.00
2023-01-10T13:08:20.123Z,11.14
2023-01-10T13:10:51.215Z,11.14
2023-01-10T13:13:38.516Z,11.53
2023-01-10T13:16:23.261Z,11.54
2023-01-10T13:19:16.085Z,11.95
2023-01-10T13:21:43.042Z,12.05
2023-01-10T13:24:15.895Z,11.58
2023-01-10T13:26:56.255Z,12.01
2023-01-10T13:29:42.210Z,12.14
2023-01-10T13:32:29.604Z,12.32
2023-01-10T13:35:13.711Z,12.06
2023-01-10T13:37:44.525Z,11.82
2023-01-10T13:40:25.932Z,12.23
2023-01-10T13:43:30.786Z,12.69
2023-01-10T13:46:15.137Z,12.90
2023-01-10T13:49:02.536Z,12.82
2023-01-10T13:51:31.709Z,12.88
2023-01-10T13:54:03.246Z,12.80
2023-01-10T13:56:35.650Z,12.81
2023-01-10T13:59:04.618Z,13.19
2023-01-10T14:01:38.596Z,13.07
2023-01-10T14:04:06.533Z,13.32
2023-01-10T14:06:38.059Z,13.14
2023-01-10T14:09:06.498Z,13.66
2023-01-10T14:11:44.761Z,13.81
2023-01-10T14:14:41.082Z,14.12
2023-01-10T14:17:12.541Z,14.36
2023-01-10T14:19:41.038Z,14.33
2023-01-10T14:22:25.198Z,13.97
2023-01-10T14:24:53.620Z,14.11
2023-01-10T14:27:21.805Z,14.29
2023-01-10T14:30:00.873Z,14.48
2023-01-10T14:32:35.982Z,14.20
2023-01-10T14:35:05.941Z,14.21
2023-01-10T14:37:54.987Z,13.92
2023-01-10T14:40:43.929Z,13.66
2023-01-10T14:43:17.828Z,13.52
2023-01-10T14:46:15.647Z,13.47
2023-01-10T14:48:51.219Z,13.20
2023-01-10T14:51:24.574Z,13.01
2023-01-10T14:54:00.236Z,12.70
2023-01-10T14:56:38.866Z,12.70
2023-01-10T14:59:24.072Z,12.44
2023-01-10T15:01:54.485Z,12.15
2023-01-10T15:04:23.718Z,11.96
2023-01-10T15:06:53.320Z,11.27
2023-01-10T15:09:19.955Z,11.35
2023-01-10T15:11:48.767Z,11.33
2023-01-10T15:14:18.783Z,11.33
2023-01-10T15:16:48.131Z,11.00
2023-01-10T15:19:21.990Z,10.95
2023-01-10T15:21:49.728Z,11.06
2023-01-10T15:24:33.134Z,11.12
2023-01-10T15:27:12.209Z,11.17
2023-01-10T15:29:43.681Z,10.92
2023-01-10T15:32:18.291Z,11.01
2023-01-10T15:34:51.117Z,10.89
2023-01-10T15:37:23.703Z,10.78
2023-01-10T15:39:50.210Z,10.61
2023-01-10T15:42:21.045Z,10.55
2023-01-10T15:44:49.808Z,10.48
2023-01-10T15:47:36.678Z,10.55
2023-01-10T15:50:25.552Z,10.37
2023-01-10T15:53:01.472Z,10.45
2023-01-10T15:55:41.583Z,10.40
2023-01-10T15:58:29.637Z,10.51
2023-01-10T16:00:59.742Z,10.60
2023-01-10T16:03:44.035Z,10.57
2023-01-10T16:06:31.290Z,10.39
2023-01-10T16:09:01.155Z,10.34
2023-01-10T16:11:39.295Z,10.62
2023-01-10T16:14:05.802Z,10.31
2023-01-10T16:16:32.577Z,10.54
2023-01-10T16:19:00.258Z,10.60
2023-01-10T16:21:35.493Z,10.32
2023-01-10T16:24:03.704Z,10.24
2023-01-10T16:26:30.499Z,10.35
2023-01-10T16:28:57.063Z,10.01
2023-01-10T16:31:23.644Z,10.12
2023-01-10T16:33:50.133Z,10.29
2023-01-10T16:36:18.619Z,10.43
2023-01-10T16:38:45.324Z,10.42
2023-01-10T16:41:14.045Z,10.34
2023-01-10T16:43:40.502Z,10.22
2023-01-10T16:46:07.140Z,10.40
2023-01-10T16:48:33.643Z,10.40
2023-01-10T16:51:23.377Z,10.57
2023-01-10T16:53:50.923Z,10.49
2023-01-10T16:56:20.988Z,10.52
2023-01-10T16:58:49.002Z,10.52
2023-01-10T17:01:18.942Z,10.35
2023-01-10T17:03:47.180Z,10.32
2023-01-10T17:06:14.928Z,10.45
2023-01-10T17:08:42.691Z,10.64
2023-01-10T17:11:22.580Z,10.72
2023-01-10T17:13:49.354Z,10.38
2023-01-10T17:16:18.567Z,10.31
2023-01-10T17:18:46.990Z,10.50
2023-01-10T17:21:16.947Z,10.64
2023-01-10T17:23:44.301Z,10.61
2023-01-10T17:26:13.257Z,10.55
2023-01-10T17:28:39.991Z,10.47
2023-01-10T17:31:07.693Z,10.66
2023-01-10T17:33:34.749Z,10.49
2023-01-10T17:36:01.271Z,10.46
2023-01-10T17:38:29.949Z,10.47
2023-01-10T17:40:59.166Z,10.65
2023-01-10T17:43:25.608Z,10.73
2023-01-10T17:45:52.247Z,10.67
2023-01-10T17:48:19.454Z,10.52
2023-01-10T17:50:48.535Z,10.67
2023-01-10T17:53:16.464Z,10.38
2023-01-10T17:55:46.938Z,10.63
2023-01-10T17:58:14.379Z,10.75
2023-01-10T18:00:40.887Z,10.54
2023-01-10T18:03:08.071Z,10.67
2023-01-10T18:05:34.964Z,10.38
2023-01-10T18:08:04.841Z,10.45
2023-01-10T18:10:32.560Z,10.53
2023-01-10T18:12:59.060Z,10.34
2023-01-10T18:15:26.334Z,10.21
2023-01-10T18:17:52.926Z,10.50
2023-01-10T18:20:19.660Z,10.66
2023-01-10T18:22:46.126Z,10.72
2023-01-10T18:25:12.676Z,10.52
2023-01-10T18:27:39.162Z,10.58
2023-01-10T18:30:06.227Z,10.52
2023-01-10T18:32:32.864Z,10.65
2023-01-10T18:34:59.323Z,10.59
2023-01-10T18:37:25.980Z,10.65
2023-01-10T18:39:52.453Z,10.57
2023-01-10T18:42:18.937Z,10.59
2023-01-10T18:44:45.445Z,10.71
2023-01-10T18:47:11.917Z,10.52
2023-01-10T18:49:38.412Z,10.65
2023-01-10T18:52:04.894Z,10.68
2023-01-10T18:54:31.392Z,10.62
2023-01-10T18:56:57.854Z,10.67
2023-01-10T18:59:24.350Z,10.71
2023-01-10T19:01:50.979Z,10.80
2023-01-10T19:04:17.510Z,10.83
2023-01-10T19:06:44.188Z,10.69
2023-01-10T19:09:10.919Z,10.75
2023-01-10T19:11:37.371Z,10.50
2023-01-10T19:14:04.166Z,10.49
2023-01-10T19:16:31.433Z,10.65
2023-01-10T19:19:00.648Z,10.47
2023-01-10T19:21:28.113Z,10.25
2023-01-10T19:24:00.247Z,10.52
2023-01-10T19:26:26.942Z,10.21
2023-01-10T19:28:53.739Z,10.47
2023-01-10T19:31:28.761Z,10.63
2023-01-10T19:33:59.432Z,10.61
2023-01-10T19:36:26.954Z,10.68
2023-01-10T19:38:58.453Z,10.58
2023-01-10T19:41:26.881Z,10.31
2023-01-10T19:44:02.270Z,10.57
2023-01-10T19:46:29.627Z,9.98
2023-01-10T19:48:56.293Z,10.36
2023-01-10T19:51:22.970Z,10.56
2023-01-10T19:53:49.514Z,10.55
2023-01-10T19:56:18.487Z,10.71
2023-01-10T19:58:45.663Z,10.49
2023-01-10T20:01:14.654Z,10.63
2023-01-10T20:03:42.007Z,10.29
2023-01-10T20:06:13.585Z,10.15
2023-01-10T20:08:41.318Z,10.32
2023-01-10T20:11:07.891Z,10.47
2023-01-10T20:13:37.277Z,10.54
2023-01-10T20:16:05.235Z,10.70
2023-01-10T20:18:32.147Z,10.81
2023-01-10T20:20:59.128Z,10.81
2023-01-10T20:23:25.638Z,10.81
2023-01-10T20:26:00.793Z,10.57
2023-01-10T20:28:28.161Z,10.77
2023-01-10T20:30:58.595Z,10.55
2023-01-10T20:33:25.567Z,10.67
2023-01-10T20:36:00.772Z,10.28
2023-01-10T20:38:28.622Z,9.90
2023-01-10T20:40:59.107Z,9.59
2023-01-10T20:43:26.622Z,9.68
2023-01-10T20:45:53.249Z,9.62
2023-01-10T20:48:20.079Z,9.41
2023-01-10T20:50:47.504Z,9.42
2023-01-10T20:53:15.093Z,9.72
2023-01-10T20:55:41.659Z,9.88
2023-01-10T20:58:09.650Z,9.58
2023-01-10T21:00:36.132Z,9.58
2023-01-10T21:03:02.918Z,9.77
2023-01-10T21:05:29.439Z,9.90
2023-01-10T21:07:55.988Z,10.01
2023-01-10T21:10:22.569Z,10.19
2023-01-10T21:12:49.174Z,10.42
2023-01-10T21:15:15.795Z,10.23
2023-01-10T21:17:42.263Z,10.27
2023-01-10T21:20:10.053Z,9.87
2023-01-10T21:22:36.604Z,9.90
2023-01-10T21:25:03.502Z,10.20
2023-01-10T21:27:30.004Z,10.29
2023-01-10T21:29:59.716Z,10.20
2023-01-10T21:32:26.565Z,10.37
2023-01-10T21:34:54.083Z,10.50
2023-01-10T21:37:20.537Z,9.92
2023-01-10T21:39:46.997Z,9.92
2023-01-10T21:42:13.461Z,10.13
2023-01-10T21:44:39.920Z,9.98
2023-01-10T21:47:06.642Z,9.92
2023-01-10T21:49:33.173Z,10.05
2023-01-10T21:51:59.663Z,9.98
2023-01-10T21:54:26.191Z,10.13
2023-01-10T21:56:52.657Z,10.32
2023-01-10T21:59:19.123Z,10.47
2023-01-10T22:01:46.858Z,10.48
2023-01-10T22:04:16.355Z,10.49
2023-01-10T22:06:43.769Z,10.56
2023-01-10T22:09:11.168Z,10.16
2023-01-10T22:11:37.665Z,10.38
2023-01-10T22:14:04.258Z,10.50
2023-01-10T22:16:30.897Z,10.57
2023-01-10T22:18:58.215Z,10.66
2023-01-10T22:21:24.691Z,10.69
2023-01-10T22:23:51.160Z,10.75
2023-01-10T22:26:17.619Z,10.81
2023-01-10T22:28:44.117Z,10.83
2023-01-10T22:31:11.111Z,10.75
2023-01-10T22:33:38.159Z,10.86
2023-01-10T22:36:05.668Z,10.94
2023-01-10T22:38:32.145Z,10.94
2023-01-10T22:41:06.511Z,10.96
2023-01-10T22:43:33.666Z,10.95
2023-01-10T22:46:00.228Z,10.95
2023-01-10T22:48:26.744Z,10.98
2023-01-10T22:50:53.211Z,10.90
2023-01-10T22:53:19.803Z,10.97
2023-01-10T22:55:46.668Z,10.94
2023-01-10T22:58:13.143Z,10.87
2023-01-10T23:00:39.590Z,10.81
2023-01-10T23:03:06.155Z,10.76
2023-01-10T23:05:32.622Z,10.71
2023-01-10T23:07:59.094Z,10.75
2023-01-10T23:10:30.712Z,10.76
2023-01-10T23:12:58.006Z,10.71
2023-01-10T23:15:24.620Z,10.64
2023-01-10T23:17:51.122Z,10.64
2023-01-10T23:20:17.656Z,10.62
2023-01-10T23:22:44.211Z,10.59
2023-01-10T23:25:10.832Z,10.67
2023-01-10T23:27:37.339Z,10.64
2023-01-10T23:30:09.010Z,10.57
2023-01-10T23:32:35.522Z,10.66
2023-01-10T23:35:02.326Z,10.58
2023-01-10T23:37:28.807Z,10.64
2023-01-10T23:39:55.284Z,10.70
2023-01-10T23:42:21.805Z,10.56
2023-01-10T23:44:48.277Z,10.57
2023-01-10T23:47:14.821Z,10.61
2023-01-10T23:49:41.297Z,10.62
2023-01-10T23:52:07.788Z,10.53
2023-01-10T23:54:34.299Z,10.59
2023-01-10T23:57:00.746Z,10.68
2023-01-10T23:59:27.244Z,10.68
